Time;durP1;ratioP1;P1;durP2;ratioP2;P2;SDS_P1;SDS_P2;PMS_P1;PMS_P2;Temp;Humidity;BMP_temperature;BMP_pressure;BME280_temperature;BME280_humidity;BME280_pressure;Samples;Min_cycle;Max_cycle;Signal;HPM_P1;HPM_P2
2023/05/10 00:01:29;;;;;;;29.42;18.25;;;13.90;99.90;;;;;;5075148;28;20029;-67
2023/05/10 00:03:55;;;;;;;34.08;17.48;;;13.90;99.90;;;;;;5075012;28;20024;-67
2023/05/10 00:06:20;;;;;;;32.03;17.95;;;13.90;99.90;;;;;;5075013;28;20028;-67
2023/05/10 00:08:46;;;;;;;38.50;18.55;;;13.90;99.90;;;;;;5075556;28;20522;-67
2023/05/10 00:11:11;;;;;;;43.17;20.42;;;13.80;99.90;;;;;;5075627;28;20029;-66
2023/05/10 00:13:37;;;;;;;48.75;23.65;;;13.80;99.90;;;;;;5075082;28;20086;-67
2023/05/10 00:16:03;;;;;;;62.08;27.45;;;13.80;99.90;;;;;;5074732;28;20025;-67
2023/05/10 00:18:28;;;;;;;65.10;28.92;;;13.80;99.90;;;;;;5074499;28;20059;-67
2023/05/10 00:20:54;;;;;;;63.58;28.33;;;13.80;99.90;;;;;;5074943;28;20022;-67
2023/05/10 00:23:19;;;;;;;84.40;36.15;;;13.80;99.90;;;;;;5074601;28;20012;-66
2023/05/10 00:25:45;;;;;;;94.47;38.83;;;13.80;99.90;;;;;;5074821;28;20024;-66
2023/05/10 00:28:10;;;;;;;108.45;43.92;;;13.80;99.90;;;;;;5074257;28;20536;-67
2023/05/10 00:30:36;;;;;;;113.70;45.70;;;13.80;99.90;;;;;;5074806;28;20038;-67
2023/05/10 00:33:01;;;;;;;121.70;46.75;;;13.70;99.90;;;;;;5074818;28;20025;-67
2023/05/10 00:35:27;;;;;;;112.35;44.85;;;13.70;99.90;;;;;;5074202;28;20467;-67
2023/05/10 00:37:52;;;;;;;100.93;40.88;;;13.70;99.90;;;;;;5074859;28;20024;-67
2023/05/10 00:40:18;;;;;;;84.75;34.17;;;13.60;99.90;;;;;;5074445;28;20021;-66
2023/05/10 00:42:43;;;;;;;70.95;31.10;;;13.60;99.90;;;;;;5074711;28;20095;-66
2023/05/10 00:45:09;;;;;;;59.75;25.25;;;13.60;99.90;;;;;;5074454;28;20035;-66
2023/05/10 00:47:35;;;;;;;49.28;22.30;;;13.60;99.90;;;;;;5074673;28;20032;-66
2023/05/10 00:50:00;;;;;;;39.03;19.60;;;13.60;99.90;;;;;;5073322;28;20035;-66
2023/05/10 00:52:28;;;;;;;36.33;18.77;;;13.50;99.90;;;;;;5074755;28;20174;-66
2023/05/10 00:54:54;;;;;;;32.15;17.55;;;13.60;99.90;;;;;;5074200;28;20028;-66
2023/05/10 00:57:19;;;;;;;26.20;15.68;;;13.50;99.90;;;;;;5074643;28;20465;-66
2023/05/10 00:59:45;;;;;;;31.50;17.08;;;13.50;99.90;;;;;;5073681;28;20074;-66
2023/05/10 01:02:12;;;;;;;28.15;16.63;;;13.50;99.90;;;;;;5074547;28;20082;-66
2023/05/10 01:04:39;;;;;;;26.30;15.93;;;13.50;99.90;;;;;;5073999;28;20481;-67
2023/05/10 01:07:04;;;;;;;28.10;16.83;;;13.50;99.90;;;;;;5073665;28;20033;-66
2023/05/10 01:09:30;;;;;;;28.70;17.05;;;13.50;99.90;;;;;;5073839;28;20036;-66
2023/05/10 01:11:56;;;;;;;29.35;17.13;;;13.50;99.90;;;;;;5074424;28;20416;-66
2023/05/10 01:14:22;;;;;;;30.42;17.65;;;13.50;99.90;;;;;;5074192;28;20035;-66
2023/05/10 01:16:49;;;;;;;27.25;16.75;;;13.50;99.90;;;;;;5074222;28;20037;-66
2023/05/10 01:19:21;;;;;;;27.35;17.67;;;13.50;99.90;;;;;;5074141;28;20107;-66
2023/05/10 01:22:16;;;;;;;28.98;18.17;;;13.50;99.90;;;;;;5073943;28;20047;-67
2023/05/10 01:25:12;;;;;;;25.70;16.38;;;13.50;99.90;;;;;;5073536;28;20456;-66
2023/05/10 01:28:13;;;;;;;25.02;14.38;;;13.50;99.90;;;;;;5073638;28;20051;-66
2023/05/10 01:31:18;;;;;;;22.95;14.52;;;13.50;99.90;;;;;;5073384;28;20466;-67
2023/05/10 01:34:07;;;;;;;22.52;15.25;;;13.50;99.90;;;;;;5073753;28;20029;-66
2023/05/10 01:36:57;;;;;;;23.90;14.88;;;13.40;99.90;;;;;;5073632;28;20016;-66
2023/05/10 01:39:52;;;;;;;22.80;15.13;;;13.50;99.90;;;;;;5074071;28;20029;-67
2023/05/10 01:42:21;;;;;;;25.65;15.90;;;13.50;99.90;;;;;;5073015;28;20115;-67
2023/05/10 01:45:27;;;;;;;24.70;15.80;;;13.50;99.90;;;;;;5073913;28;20478;-67
2023/05/10 01:48:06;;;;;;;27.02;15.25;;;13.40;99.90;;;;;;5073325;28;20061;-66
2023/05/10 01:50:34;;;;;;;26.60;16.02;;;13.40;99.90;;;;;;5073175;28;20393;-66
2023/05/10 01:53:02;;;;;;;22.95;15.02;;;13.40;99.90;;;;;;5073818;28;20020;-66
2023/05/10 01:55:32;;;;;;;22.42;13.70;;;13.40;99.90;;;;;;5074084;28;20116;-67
2023/05/10 01:58:07;;;;;;;24.90;14.52;;;13.40;99.90;;;;;;5073732;28;20413;-66
2023/05/10 02:00:34;;;;;;;24.30;14.10;;;13.30;99.90;;;;;;5073657;28;20048;-66
2023/05/10 02:03:05;;;;;;;24.08;13.02;;;13.40;99.90;;;;;;5078005;28;20020;-66
2023/05/10 02:05:33;;;;;;;25.30;13.70;;;13.30;99.90;;;;;;5077773;28;20480;-66
2023/05/10 02:08:01;;;;;;;25.85;14.05;;;13.30;99.90;;;;;;5077454;28;20086;-66
2023/05/10 02:10:28;;;;;;;27.98;13.88;;;13.30;99.90;;;;;;5077407;28;20028;-66
2023/05/10 02:12:58;;;;;;;25.05;13.43;;;13.30;99.90;;;;;;5077376;28;20474;-66
2023/05/10 02:15:26;;;;;;;25.08;13.10;;;13.30;99.90;;;;;;5077724;28;20370;-66
2023/05/10 02:17:54;;;;;;;26.17;12.93;;;13.30;99.90;;;;;;5077734;28;20506;-66
2023/05/10 02:20:20;;;;;;;22.75;12.38;;;13.30;99.90;;;;;;5077243;28;20060;-66
2023/05/10 02:22:48;;;;;;;22.95;12.25;;;13.30;99.90;;;;;;5077420;28;20025;-67
2023/05/10 02:25:15;;;;;;;21.23;11.40;;;13.30;99.90;;;;;;5077595;28;20036;-66
2023/05/10 02:27:43;;;;;;;25.17;12.60;;;13.30;99.90;;;;;;5076774;28;20056;-66
2023/05/10 02:30:12;;;;;;;22.40;11.68;;;13.30;99.90;;;;;;5077318;28;20040;-66
2023/05/10 02:32:39;;;;;;;23.20;11.77;;;13.30;99.90;;;;;;5076759;28;20025;-66
2023/05/10 02:35:05;;;;;;;18.50;9.85;;;13.30;99.90;;;;;;5076722;28;20504;-66
2023/05/10 02:37:32;;;;;;;20.58;10.88;;;13.20;99.90;;;;;;5076893;28;20405;-66
2023/05/10 02:39:58;;;;;;;18.88;9.48;;;13.20;99.90;;;;;;5077374;28;20024;-66
2023/05/10 02:42:26;;;;;;;13.80;7.72;;;13.10;99.90;;;;;;5076342;28;20089;-66
2023/05/10 02:44:59;;;;;;;10.90;6.70;;;13.10;99.90;;;;;;5076888;28;20032;-66
2023/05/10 02:47:25;;;;;;;11.17;6.83;;;13.00;99.90;;;;;;5077242;28;20036;-66
2023/05/10 02:49:51;;;;;;;11.75;6.25;;;13.00;99.90;;;;;;5076730;28;20031;-67
2023/05/10 02:52:21;;;;;;;8.20;4.93;;;12.90;99.90;;;;;;5076877;28;20029;-66
2023/05/10 02:54:52;;;;;;;7.00;4.40;;;12.90;99.90;;;;;;5076721;28;20028;-67
2023/05/10 02:57:24;;;;;;;9.45;4.60;;;12.80;99.90;;;;;;5077024;28;20033;-66
2023/05/10 02:59:50;;;;;;;6.63;4.30;;;12.80;99.90;;;;;;5076760;28;20048;-67
2023/05/10 03:02:16;;;;;;;9.30;5.07;;;12.80;99.90;;;;;;5076992;28;20032;-66
2023/05/10 03:04:41;;;;;;;7.05;4.43;;;12.80;99.90;;;;;;5076420;28;20099;-66
2023/05/10 03:07:08;;;;;;;5.13;3.88;;;12.80;99.90;;;;;;5076372;28;20577;-66
2023/05/10 03:09:33;;;;;;;7.60;4.25;;;12.70;99.90;;;;;;5076429;28;20033;-66
2023/05/10 03:12:37;;;;;;;6.85;3.75;;;12.70;99.90;;;;;;5076220;28;20111;-66
2023/05/10 03:18:04;;;;;;;7.15;4.10;;;12.70;99.90;;;;;;5091626;28;20382;-67
2023/05/10 03:20:35;;;;;;;6.63;4.05;;;12.60;99.90;;;;;;5091306;28;20059;-67
2023/05/10 03:23:04;;;;;;;8.95;4.38;;;12.50;99.90;;;;;;5091468;28;20063;-67
2023/05/10 03:25:31;;;;;;;5.47;4.30;;;12.50;99.90;;;;;;5090929;28;20062;-67
2023/05/10 03:27:57;;;;;;;7.57;4.82;;;12.80;99.90;;;;;;5090867;28;20028;-67
2023/05/10 03:30:24;;;;;;;7.18;4.55;;;12.50;99.90;;;;;;5090910;28;20385;-67
2023/05/10 03:32:50;;;;;;;7.13;5.20;;;12.50;99.90;;;;;;5091596;28;20029;-67
2023/05/10 03:35:15;;;;;;;5.90;4.68;;;12.50;99.90;;;;;;5091429;28;20032;-67
2023/05/10 03:37:41;;;;;;;5.07;4.40;;;12.40;99.90;;;;;;5090945;28;20036;-67
2023/05/10 03:40:08;;;;;;;7.65;5.00;;;12.40;99.90;;;;;;5090873;28;20111;-68
2023/05/10 03:42:33;;;;;;;7.05;6.05;;;12.40;99.90;;;;;;5090953;28;20017;-67
2023/05/10 03:44:59;;;;;;;6.47;5.30;;;12.40;99.90;;;;;;5090837;28;20355;-67
2023/05/10 03:47:24;;;;;;;7.25;4.70;;;12.40;99.90;;;;;;5090413;28;20363;-67
2023/05/10 03:49:50;;;;;;;7.28;4.30;;;12.40;99.90;;;;;;5090917;28;20036;-67
2023/05/10 03:52:15;;;;;;;7.57;4.35;;;12.40;99.90;;;;;;5090725;28;20047;-67
2023/05/10 03:54:41;;;;;;;7.10;4.60;;;12.40;99.90;;;;;;5090607;28;20038;-67
2023/05/10 03:57:06;;;;;;;9.18;4.72;;;12.50;99.90;;;;;;5090737;28;20472;-67
2023/05/10 03:59:32;;;;;;;6.85;4.55;;;12.40;99.90;;;;;;5090565;28;20095;-67
2023/05/10 04:01:57;;;;;;;8.95;4.90;;;12.40;99.90;;;;;;5090186;28;20103;-67
2023/05/10 04:04:23;;;;;;;8.38;4.65;;;12.40;99.90;;;;;;5090934;28;20115;-67
2023/05/10 04:06:49;;;;;;;9.75;5.68;;;12.40;99.90;;;;;;5090428;28;20030;-67
2023/05/10 04:09:14;;;;;;;9.63;6.03;;;12.40;99.90;;;;;;5090153;28;20119;-67
2023/05/10 04:11:40;;;;;;;12.88;6.90;;;12.40;99.90;;;;;;5089702;28;20024;-67
2023/05/10 04:14:05;;;;;;;11.80;6.50;;;12.50;99.90;;;;;;5089984;28;20073;-67
2023/05/10 04:16:31;;;;;;;10.10;5.95;;;12.50;99.90;;;;;;5089940;28;20056;-67
2023/05/10 04:18:57;;;;;;;10.27;6.13;;;12.50;99.90;;;;;;5090575;28;20450;-67
2023/05/10 04:21:22;;;;;;;9.02;6.40;;;12.40;99.90;;;;;;5090076;28;20469;-67
2023/05/10 04:23:48;;;;;;;11.40;6.15;;;12.50;99.90;;;;;;5090008;28;20028;-68
2023/05/10 04:26:13;;;;;;;12.68;6.53;;;12.50;99.90;;;;;;5089686;28;20393;-67
2023/05/10 04:28:39;;;;;;;11.07;7.00;;;12.50;99.90;;;;;;5078761;28;20028;-67
2023/05/10 04:31:07;;;;;;;9.35;6.72;;;12.50;99.90;;;;;;5076643;28;20031;-68
2023/05/10 04:33:33;;;;;;;11.30;6.82;;;12.50;99.90;;;;;;5076913;28;20169;-68
2023/05/10 04:35:58;;;;;;;11.90;7.15;;;12.60;99.90;;;;;;5076126;28;20135;-68
2023/05/10 04:38:24;;;;;;;13.13;7.97;;;12.60;99.90;;;;;;5076807;28;20028;-67
2023/05/10 04:40:50;;;;;;;11.93;7.40;;;12.50;99.90;;;;;;5075918;28;20524;-67
2023/05/10 04:43:15;;;;;;;14.32;8.38;;;12.60;99.90;;;;;;5075800;28;20127;-67
2023/05/10 04:45:41;;;;;;;11.32;7.28;;;12.60;99.90;;;;;;5076206;28;20033;-67
2023/05/10 04:48:07;;;;;;;13.77;7.70;;;12.60;99.90;;;;;;5075974;28;20036;-67
2023/05/10 04:50:33;;;;;;;13.98;7.43;;;12.60;99.90;;;;;;5076629;28;20042;-67
2023/05/10 04:52:58;;;;;;;14.50;7.07;;;12.60;99.90;;;;;;5076629;28;20137;-68
2023/05/10 04:55:24;;;;;;;12.05;7.53;;;12.60;99.90;;;;;;5075474;28;20028;-67
2023/05/10 04:57:50;;;;;;;13.00;7.70;;;12.70;99.90;;;;;;5075918;28;20055;-68
2023/05/10 05:00:16;;;;;;;12.48;6.75;;;12.70;99.90;;;;;;5076209;28;20144;-67
2023/05/10 05:02:45;;;;;;;13.13;7.60;;;12.70;99.90;;;;;;5076149;28;20466;-67
2023/05/10 05:05:12;;;;;;;14.02;7.18;;;12.70;99.90;;;;;;5076300;28;20023;-67
2023/05/10 05:07:38;;;;;;;11.20;7.03;;;12.70;99.90;;;;;;5075829;28;20036;-67
2023/05/10 05:10:06;;;;;;;13.90;7.47;;;12.70;99.90;;;;;;5075524;28;20063;-68
2023/05/10 05:12:31;;;;;;;12.40;7.55;;;12.80;99.90;;;;;;5075938;28;20037;-68
2023/05/10 05:14:57;;;;;;;15.13;8.10;;;12.80;99.90;;;;;;5075461;28;20074;-68
2023/05/10 05:17:22;;;;;;;14.65;8.18;;;12.80;99.90;;;;;;5074857;28;20040;-67
2023/05/10 05:19:48;;;;;;;16.33;8.88;;;12.90;99.90;;;;;;5075809;28;20021;-67
2023/05/10 05:22:13;;;;;;;17.38;9.60;;;13.00;99.90;;;;;;5076006;28;20028;-67
2023/05/10 05:24:39;;;;;;;21.30;10.90;;;12.90;99.90;;;;;;5075213;28;20024;-67
2023/05/10 05:27:05;;;;;;;20.85;11.18;;;12.10;99.90;;;;;;5075358;28;20119;-67
2023/05/10 05:29:31;;;;;;;19.77;11.32;;;12.90;99.90;;;;;;5074944;28;20433;-67
2023/05/10 05:31:56;;;;;;;24.65;12.85;;;13.00;99.90;;;;;;5075614;28;20032;-67
2023/05/10 05:34:22;;;;;;;27.15;13.65;;;13.00;99.90;;;;;;5075361;28;20075;-67
2023/05/10 05:36:48;;;;;;;29.38;14.32;;;12.90;99.90;;;;;;5075404;28;20032;-67
2023/05/10 05:39:13;;;;;;;36.10;15.68;;;12.90;99.90;;;;;;5074337;28;20027;-67
2023/05/10 05:41:39;;;;;;;32.88;16.08;;;13.00;99.90;;;;;;5075031;28;20027;-67
2023/05/10 05:44:05;;;;;;;33.92;17.55;;;13.00;99.90;;;;;;5075045;28;20024;-67
2023/05/10 05:46:30;;;;;;;42.17;18.63;;;13.10;99.90;;;;;;5074328;28;20024;-67
2023/05/10 05:48:56;;;;;;;38.65;18.73;;;13.00;99.90;;;;;;5075248;28;20024;-67
2023/05/10 05:51:22;;;;;;;39.58;20.67;;;13.00;99.90;;;;;;5074321;28;20024;-67
2023/05/10 05:53:47;;;;;;;38.42;19.85;;;13.10;99.90;;;;;;5074912;28;20028;-68
2023/05/10 05:56:13;;;;;;;47.47;22.13;;;13.10;99.90;;;;;;5074953;28;20025;-68
2023/05/10 05:58:38;;;;;;;44.88;20.88;;;13.10;99.90;;;;;;5074886;28;20064;-67
2023/05/10 06:01:04;;;;;;;45.28;23.80;;;13.20;99.90;;;;;;5075175;28;20123;-68
2023/05/10 06:03:29;;;;;;;48.65;26.17;;;13.30;99.90;;;;;;5074276;28;20024;-67
2023/05/10 06:05:55;;;;;;;51.45;26.40;;;13.20;99.90;;;;;;5074492;28;20029;-67
2023/05/10 06:08:20;;;;;;;58.03;27.88;;;13.20;99.90;;;;;;5074007;28;20032;-67
2023/05/10 06:10:46;;;;;;;63.05;29.92;;;13.30;99.90;;;;;;5074422;28;20032;-67
2023/05/10 06:13:12;;;;;;;61.50;30.15;;;13.30;99.90;;;;;;5074310;28;20067;-67
2023/05/10 06:15:38;;;;;;;68.45;35.25;;;13.40;99.90;;;;;;5074226;28;20532;-67
2023/05/10 06:18:03;;;;;;;75.40;37.63;;;13.40;99.90;;;;;;5074658;28;20025;-67
2023/05/10 06:20:31;;;;;;;80.50;37.47;;;13.40;99.90;;;;;;5074516;28;20101;-67
2023/05/10 06:22:57;;;;;;;80.88;40.55;;;13.40;99.90;;;;;;5074223;28;20028;-67
2023/05/10 06:25:23;;;;;;;82.38;39.78;;;13.40;99.90;;;;;;5074736;28;20120;-67
2023/05/10 06:27:48;;;;;;;85.00;40.58;;;13.40;99.90;;;;;;5073992;28;20064;-67
2023/05/10 06:30:15;;;;;;;83.60;39.47;;;13.40;99.90;;;;;;5068673;28;20063;-68
2023/05/10 06:32:40;;;;;;;87.32;41.40;;;13.50;99.90;;;;;;5064534;28;20060;-67
2023/05/10 06:35:06;;;;;;;99.68;45.10;;;13.50;99.90;;;;;;5060721;28;20049;-68
2023/05/10 06:37:32;;;;;;;101.28;46.28;;;13.40;99.90;;;;;;5060472;28;20379;-67
2023/05/10 06:39:58;;;;;;;100.25;45.45;;;13.40;99.90;;;;;;5068743;28;20085;-67
2023/05/10 06:42:25;;;;;;;98.03;43.78;;;13.40;99.90;;;;;;5070230;28;20391;-67
2023/05/10 06:44:50;;;;;;;109.82;46.90;;;13.40;99.90;;;;;;5072081;28;20024;-67
2023/05/10 06:47:17;;;;;;;101.05;44.78;;;13.50;99.90;;;;;;5073313;28;20028;-67
2023/05/10 06:49:42;;;;;;;99.00;45.38;;;13.50;99.90;;;;;;5073190;28;20120;-67
2023/05/10 06:52:08;;;;;;;105.18;45.65;;;13.40;99.90;;;;;;5068688;28;20111;-67
2023/05/10 06:54:33;;;;;;;103.18;45.13;;;13.50;99.90;;;;;;5073189;28;20025;-67
2023/05/10 06:56:59;;;;;;;102.38;45.00;;;13.50;99.90;;;;;;5071396;28;20086;-67
2023/05/10 06:59:24;;;;;;;99.50;44.30;;;13.60;99.90;;;;;;5073680;28;20029;-67
2023/05/10 07:01:50;;;;;;;105.13;46.58;;;13.70;99.90;;;;;;5073168;28;20059;-67
2023/05/10 07:04:17;;;;;;;101.43;47.13;;;13.70;99.90;;;;;;5069275;28;20453;-67
2023/05/10 07:06:43;;;;;;;100.28;45.05;;;13.70;99.90;;;;;;5068332;28;20037;-67
2023/05/10 07:09:08;;;;;;;98.18;45.30;;;13.70;99.90;;;;;;5064719;28;20108;-67
2023/05/10 07:11:34;;;;;;;101.63;46.13;;;13.80;99.90;;;;;;5068485;28;20163;-67
2023/05/10 07:14:00;;;;;;;95.63;44.05;;;13.90;99.90;;;;;;5057457;28;20036;-65
2023/05/10 07:16:25;;;;;;;99.80;46.38;;;13.80;99.90;;;;;;5073161;28;20090;-65
2023/05/10 07:18:52;;;;;;;93.60;43.63;;;13.90;99.90;;;;;;5073600;28;20035;-65
2023/05/10 07:21:18;;;;;;;97.13;47.35;;;13.80;99.90;;;;;;5059699;28;20040;-65
2023/05/10 07:23:43;;;;;;;93.72;45.22;;;13.90;99.90;;;;;;5059004;28;20478;-66
2023/05/10 07:26:09;;;;;;;87.80;43.55;;;13.90;99.90;;;;;;5066828;28;20415;-67
2023/05/10 07:28:37;;;;;;;93.90;43.53;;;13.90;99.90;;;;;;5067774;28;20040;-65
2023/05/10 07:31:02;;;;;;;82.25;40.95;;;14.10;99.90;;;;;;5061998;28;20029;-65
2023/05/10 07:33:28;;;;;;;79.72;39.58;;;14.10;99.90;;;;;;5056723;28;20497;-65
2023/05/10 07:35:53;;;;;;;80.60;40.63;;;14.20;99.90;;;;;;5068888;28;20500;-65
2023/05/10 07:38:19;;;;;;;78.78;41.40;;;14.30;99.90;;;;;;5067748;28;20017;-66
2023/05/10 07:40:44;;;;;;;72.90;38.25;;;14.30;99.90;;;;;;5066683;28;20099;-67
2023/05/10 07:43:10;;;;;;;76.57;40.13;;;14.30;99.90;;;;;;5061375;28;20017;-64
2023/05/10 07:45:36;;;;;;;72.13;37.50;;;14.40;99.90;;;;;;5057331;28;20032;-64
2023/05/10 07:48:01;;;;;;;70.40;36.13;;;14.50;99.90;;;;;;5056222;28;20024;-64
2023/05/10 07:50:27;;;;;;;62.65;35.20;;;14.60;99.90;;;;;;5056857;28;20048;-64
2023/05/10 07:52:52;;;;;;;57.47;32.72;;;14.70;99.90;;;;;;5064640;28;20115;-64
2023/05/10 07:55:19;;;;;;;53.63;32.25;;;15.10;99.90;;;;;;5060868;28;20095;-64
2023/05/10 07:57:45;;;;;;;51.25;30.90;;;15.60;99.90;;;;;;5067109;28;20082;-65
2023/05/10 08:00:13;;;;;;;48.97;30.88;;;16.30;99.90;;;;;;5068931;28;20474;-66
2023/05/10 08:02:39;;;;;;;47.67;30.67;;;16.40;99.90;;;;;;5070646;28;20032;-66
2023/05/10 08:05:05;;;;;;;50.40;30.55;;;16.30;99.90;;;;;;5050921;28;20021;-67
2023/05/10 08:07:31;;;;;;;44.35;28.42;;;17.00;99.90;;;;;;5044326;28;20091;-67
2023/05/10 08:09:56;;;;;;;47.85;28.35;;;16.70;99.90;;;;;;5056060;28;20033;-64
2023/05/10 08:12:22;;;;;;;45.92;27.65;;;17.10;82.80;;;;;;5055443;28;20098;-65
2023/05/10 08:14:47;;;;;;;44.15;27.33;;;18.30;36.10;;;;;;5037673;28;20545;-65
2023/05/10 08:17:13;;;;;;;39.88;25.85;;;18.40;31.90;;;;;;5045151;28;20037;-65
2023/05/10 08:19:38;;;;;;;39.20;24.77;;;18.50;1.00;;;;;;5052419;28;20029;-65
2023/05/10 08:22:04;;;;;;;43.33;25.50;;;18.00;14.20;;;;;;5045889;28;20044;-65
2023/05/10 08:24:30;;;;;;;38.25;24.70;;;17.50;45.30;;;;;;5061897;28;20044;-65
2023/05/10 08:26:55;;;;;;;40.83;25.58;;;17.10;34.90;;;;;;5056815;28;20037;-65
2023/05/10 08:29:21;;;;;;;44.85;25.88;;;16.80;64.70;;;;;;5058455;28;20025;-65
2023/05/10 08:31:46;;;;;;;39.63;25.00;;;16.80;95.00;;;;;;5053201;28;20052;-65
2023/05/10 08:34:12;;;;;;;42.20;25.77;;;17.20;73.30;;;;;;5043227;28;20021;-65
2023/05/10 08:36:37;;;;;;;37.35;24.65;;;16.90;47.90;;;;;;5044074;28;20123;-66
2023/05/10 08:39:03;;;;;;;37.47;24.23;;;16.80;88.00;;;;;;5066420;28;20041;-66
2023/05/10 08:41:33;;;;;;;40.25;24.48;;;16.70;94.80;;;;;;5049221;28;20040;-67
2023/05/10 08:44:02;;;;;;;39.25;23.40;;;17.00;45.80;;;;;;5042871;28;20033;-66
2023/05/10 08:46:28;;;;;;;39.58;24.65;;;17.00;50.90;;;;;;5056341;28;20500;-66
2023/05/10 08:48:54;;;;;;;36.38;23.90;;;17.10;45.00;;;;;;5044464;28;20036;-66
2023/05/10 08:51:26;;;;;;;37.40;24.63;;;17.30;81.50;;;;;;5038497;28;20064;-66
2023/05/10 08:53:52;;;;;;;36.53;24.45;;;17.80;24.10;;;;;;5042492;28;20056;-66
2023/05/10 08:56:17;;;;;;;38.35;25.25;;;18.80;15.50;;;;;;5050819;28;20060;-66
2023/05/10 08:58:43;;;;;;;38.78;25.98;;;19.60;1.00;;;;;;5046108;28;20026;-66
2023/05/10 09:01:10;;;;;;;34.60;25.02;;;19.40;1.00;;;;;;5047557;28;20025;-66
2023/05/10 09:03:38;;;;;;;34.63;24.95;;;20.10;1.00;;;;;;5044193;28;20032;-66
2023/05/10 09:06:04;;;;;;;36.90;26.67;;;20.00;1.00;;;;;;5052609;28;20090;-66
2023/05/10 09:08:30;;;;;;;39.30;26.40;;;19.00;1.00;;;;;;5039996;28;20091;-67
2023/05/10 09:10:56;;;;;;;39.95;27.83;;;18.20;3.50;;;;;;5035119;28;20055;-66
2023/05/10 09:13:23;;;;;;;41.60;26.88;;;17.50;37.30;;;;;;5051978;28;20549;-66
2023/05/10 09:15:49;;;;;;;40.47;27.92;;;17.20;51.20;;;;;;5054648;28;20045;-67
2023/05/10 09:18:15;;;;;;;45.15;29.27;;;16.70;70.00;;;;;;5054752;28;20422;-65
2023/05/10 09:20:41;;;;;;;37.90;26.25;;;16.40;94.00;;;;;;5053451;28;20044;-65
2023/05/10 09:23:07;;;;;;;32.60;22.98;;;17.40;44.40;;;;;;5042980;28;20037;-65
2023/05/10 09:25:33;;;;;;;33.10;24.83;;;18.60;1.00;;;;;;5053225;28;20080;-66
2023/05/10 09:27:59;;;;;;;27.98;22.45;;;18.80;1.00;;;;;;5047038;28;20183;-66
2023/05/10 09:30:30;;;;;;;30.10;22.05;;;19.50;1.00;;;;;;5046383;28;20136;-66
2023/05/10 09:32:57;;;;;;;32.72;22.83;;;20.30;1.00;;;;;;5050383;28;20025;-67
2023/05/10 09:35:24;;;;;;;32.90;22.98;;;20.90;99.90;;;;;;5047237;28;20033;-66
2023/05/10 09:37:53;;;;;;;29.73;21.70;;;20.60;99.90;;;;;;5040816;28;20044;-66
2023/05/10 09:40:21;;;;;;;30.33;24.13;;;20.10;99.90;;;;;;5044098;28;20048;-66
2023/05/10 09:45:33;;;;;;;35.25;24.85;;;19.30;99.90;;;;;;5097015;27;20372;-66
2023/05/10 09:48:00;;;;;;;41.63;28.40;;;18.50;1.00;;;;;;5098826;28;20084;-66
2023/05/10 09:50:26;;;;;;;47.22;33.05;;;18.40;1.00;;;;;;5095812;28;20074;-65
2023/05/10 09:52:55;;;;;;;55.97;37.25;;;18.10;1.00;;;;;;5096502;28;20565;-65
2023/05/10 09:55:23;;;;;;;44.22;33.50;;;17.80;1.00;;;;;;5097926;28;20089;-66
2023/05/10 09:57:57;;;;;;;46.67;33.40;;;17.40;1.00;;;;;;5103550;28;20032;-66
2023/05/10 10:00:23;;;;;;;51.65;34.80;;;17.20;1.00;;;;;;5108379;28;20529;-67
2023/05/10 10:02:56;;;;;;;46.22;30.48;;;17.30;1.00;;;;;;5109393;28;20062;-66
2023/05/10 10:05:28;;;;;;;45.83;31.38;;;17.50;1.00;;;;;;5101778;28;20133;-65
2023/05/10 10:07:55;;;;;;;42.28;27.65;;;17.50;1.00;;;;;;5128669;28;20110;-65
2023/05/10 10:10:20;;;;;;;47.63;30.95;;;17.50;6.70;;;;;;5124823;27;20365;-66
2023/05/10 10:12:46;;;;;;;50.20;32.13;;;17.60;20.00;;;;;;5109521;28;20023;-66
2023/05/10 10:15:12;;;;;;;44.97;30.30;;;18.10;33.90;;;;;;5100895;28;20024;-65
2023/05/10 10:17:38;;;;;;;47.00;31.00;;;18.90;1.00;;;;;;5092789;28;20031;-65
2023/05/10 10:20:05;;;;;;;47.75;31.35;;;17.90;3.50;;;;;;5110507;28;20153;-65
2023/05/10 10:22:30;;;;;;;45.95;29.92;;;17.30;52.10;;;;;;5114932;27;20486;-65
2023/05/10 10:24:56;;;;;;;41.25;28.50;;;17.20;66.60;;;;;;5130851;28;20099;-65
2023/05/10 10:30:36;;;;;;;45.47;28.65;;;16.80;92.60;;;;;;5090820;28;20413;-66
2023/05/10 10:33:25;;;;;;;40.13;28.20;;;16.70;68.90;;;;;;5078051;28;20036;-66
2023/05/10 10:35:53;;;;;;;45.78;29.50;;;16.60;67.70;;;;;;5074720;28;20557;-66
2023/05/10 10:38:18;;;;;;;43.65;29.63;;;16.90;94.50;;;;;;5086002;28;20021;-67
2023/05/10 10:40:44;;;;;;;48.00;32.08;;;17.10;52.10;;;;;;5078690;28;20494;-66
2023/05/10 10:43:23;;;;;;;47.47;30.85;;;17.60;76.30;;;;;;5090920;28;20028;-66
2023/05/10 10:46:12;;;;;;;48.78;32.85;;;18.60;5.20;;;;;;5075811;28;20089;-68
2023/05/10 10:48:38;;;;;;;50.33;34.25;;;19.00;1.00;;;;;;5081463;28;20016;-66
2023/05/10 10:51:03;;;;;;;49.85;33.05;;;18.70;1.00;;;;;;5083562;28;20120;-66
2023/05/10 10:53:30;;;;;;;52.38;34.80;;;18.70;1.00;;;;;;5083776;28;20075;-66
2023/05/10 10:56:14;;;;;;;56.95;37.45;;;18.90;1.00;;;;;;5092886;28;20037;-66
2023/05/10 10:58:41;;;;;;;62.70;41.47;;;19.10;1.00;;;;;;5083503;28;20382;-66
2023/05/10 11:01:15;;;;;;;58.35;39.42;;;19.70;99.90;;;;;;5082959;28;20539;-66
2023/05/10 11:04:01;;;;;;;63.05;42.13;;;19.80;1.00;;;;;;5092071;28;20021;-66
2023/05/10 11:06:32;;;;;;;68.70;44.35;;;20.30;1.00;;;;;;5085501;28;20063;-66
2023/05/10 11:08:58;;;;;;;69.35;43.08;;;20.10;99.90;;;;;;5085666;28;20031;-66
2023/05/10 11:11:23;;;;;;;62.58;42.65;;;19.70;1.00;;;;;;5080203;28;20041;-67
2023/05/10 11:13:51;;;;;;;66.28;38.85;;;19.30;1.00;;;;;;5087764;28;20028;-66
2023/05/10 11:16:20;;;;;;;54.80;36.63;;;19.10;99.90;;;;;;5081124;28;20084;-67
2023/05/10 11:19:07;;;;;;;51.30;33.60;;;18.80;1.00;;;;;;5077232;28;20107;-66
2023/05/10 11:21:34;;;;;;;43.30;28.80;;;19.20;1.00;;;;;;5081289;28;20119;-66
2023/05/10 11:24:00;;;;;;;37.10;25.35;;;19.40;1.00;;;;;;5079623;28;20035;-68
2023/05/10 11:26:32;;;;;;;41.10;25.88;;;19.50;99.90;;;;;;5081551;28;20028;-68
2023/05/10 11:29:00;;;;;;;37.35;24.88;;;19.30;99.90;;;;;;5088072;28;20036;-67
2023/05/10 11:31:26;;;;;;;44.90;27.23;;;18.70;1.00;;;;;;5088458;28;20025;-69
2023/05/10 11:33:55;;;;;;;43.40;26.23;;;18.60;1.00;;;;;;5091545;28;20029;-70
2023/05/10 11:36:27;;;;;;;39.50;26.85;;;18.30;1.00;;;;;;5088292;28;20115;-69
2023/05/10 11:38:53;;;;;;;40.25;26.73;;;18.30;1.00;;;;;;5080830;28;20490;-69
2023/05/10 11:41:21;;;;;;;40.33;27.02;;;18.30;1.00;;;;;;5058269;28;20037;-69
2023/05/10 11:43:50;;;;;;;37.28;25.73;;;18.40;1.00;;;;;;5071121;28;20032;-68
2023/05/10 11:46:20;;;;;;;28.83;18.85;;;18.70;1.00;;;;;;5074119;28;20494;-69
2023/05/10 11:48:46;;;;;;;20.50;15.40;;;18.30;99.90;;;;;;5074176;28;20487;-69
2023/05/10 11:51:12;;;;;;;26.92;17.65;;;17.70;1.00;;;;;;5064315;28;20470;-70
2023/05/10 11:53:38;;;;;;;28.67;19.63;;;17.40;1.00;;;;;;5067218;28;20025;-69
2023/05/10 11:56:06;;;;;;;29.58;19.63;;;17.20;1.00;;;;;;5069466;28;20074;-69
2023/05/10 11:58:32;;;;;;;29.92;18.88;;;16.80;1.00;;;;;;5074293;28;20028;-68
2023/05/10 12:00:59;;;;;;;24.23;16.42;;;16.60;1.00;;;;;;5070687;28;20044;-68
2023/05/10 12:03:25;;;;;;;28.15;19.88;;;16.20;25.50;;;;;;5063332;28;20043;-68
2023/05/10 12:05:51;;;;;;;36.03;24.02;;;16.00;73.00;;;;;;5072673;28;20028;-69
2023/05/10 12:08:22;;;;;;;41.70;26.70;;;15.80;97.10;;;;;;5074727;28;20050;-69
2023/05/10 12:10:47;;;;;;;42.72;27.25;;;15.70;99.90;;;;;;5092922;28;20027;-69
2023/05/10 12:13:15;;;;;;;50.17;34.08;;;15.70;99.90;;;;;;5079806;28;20021;-69
2023/05/10 12:15:41;;;;;;;58.53;35.88;;;15.60;99.90;;;;;;5067365;28;20387;-69
2023/05/10 12:18:10;;;;;;;54.40;36.08;;;15.70;99.90;;;;;;5067492;28;20028;-68
2023/05/10 12:20:36;;;;;;;67.88;39.75;;;15.70;99.90;;;;;;5065570;28;20435;-69
2023/05/10 12:23:03;;;;;;;66.78;39.83;;;15.80;99.90;;;;;;5067857;28;20032;-71
2023/05/10 12:25:32;;;;;;;68.15;41.00;;;15.90;99.90;;;;;;5060030;28;20024;-69
2023/05/10 12:28:00;;;;;;;66.18;40.10;;;16.20;99.90;;;;;;5067699;28;20164;-69
2023/05/10 12:30:28;;;;;;;70.88;42.58;;;16.40;99.90;;;;;;5070706;28;20020;-69
2023/05/10 12:32:58;;;;;;;64.00;38.85;;;16.70;99.90;;;;;;5061984;28;20028;-68
2023/05/10 12:35:24;;;;;;;53.78;34.45;;;16.80;99.90;;;;;;5062221;28;20025;-69
2023/05/10 12:37:51;;;;;;;60.63;35.33;;;16.90;99.90;;;;;;5063506;28;20413;-69
2023/05/10 12:40:17;;;;;;;52.67;35.33;;;17.00;99.90;;;;;;5069718;28;20378;-70
2023/05/10 12:42:44;;;;;;;58.25;36.65;;;17.10;99.90;;;;;;5067182;28;20070;-69